createdAt,value
2023-03-22T00:03:08.536Z,11.80
2023-03-22T00:08:13.402Z,11.70
2023-03-22T00:13:17.505Z,11.70
2023-03-22T00:18:20.274Z,11.80
2023-03-22T00:23:23.897Z,11.90
2023-03-22T00:28:28.037Z,12.10
2023-03-22T00:33:32.397Z,12.10
2023-03-22T00:38:42.857Z,12.00
2023-03-22T00:43:48.620Z,11.90
2023-03-22T00:48:51.306Z,11.80
2023-03-22T00:53:54.692Z,11.70
2023-03-22T00:58:58.645Z,11.60
2023-03-22T01:04:01.785Z,11.50
2023-03-22T01:09:04.981Z,11.30
2023-03-22T01:14:09.680Z,11.10
2023-03-22T01:19:12.337Z,11.10
2023-03-22T01:24:15.576Z,11.10
2023-03-22T01:29:19.531Z,11.00
2023-03-22T01:34:22.302Z,10.90
2023-03-22T01:39:26.081Z,10.70
2023-03-22T01:44:32.301Z,10.60
2023-03-22T01:49:36.262Z,10.30
2023-03-22T01:54:43.104Z,10.30
2023-03-22T01:59:47.935Z,10.20
2023-03-22T02:04:51.166Z,10.10
2023-03-22T02:09:54.181Z,9.90
2023-03-22T02:15:07.955Z,9.80
2023-03-22T02:20:43.816Z,9.60
2023-03-22T02:26:13.198Z,9.70
2023-03-22T02:31:35.889Z,9.70
2023-03-22T02:36:56.165Z,9.60
2023-03-22T02:42:26.174Z,9.50
2023-03-22T02:47:38.446Z,9.40
2023-03-22T02:52:46.470Z,9.30
2023-03-22T02:57:56.324Z,9.20
2023-03-22T03:03:11.084Z,9.00
2023-03-22T03:08:16.386Z,9.00
2023-03-22T03:13:21.259Z,8.80
2023-03-22T03:18:36.495Z,8.80
2023-03-22T03:23:49.807Z,8.80
2023-03-22T03:29:00.566Z,8.80
2023-03-22T03:34:11.642Z,8.80
2023-03-22T03:39:17.388Z,8.80
2023-03-22T03:44:21.943Z,8.80
2023-03-22T03:49:25.211Z,8.80
2023-03-22T03:54:27.904Z,8.80
2023-03-22T03:59:31.916Z,8.70
2023-03-22T04:04:34.898Z,8.50
2023-03-22T04:09:40.374Z,8.40
2023-03-22T04:14:44.866Z,8.40
2023-03-22T04:19:47.561Z,8.40
2023-03-22T04:24:50.921Z,8.30
2023-03-22T04:29:55.858Z,8.20
2023-03-22T04:34:58.549Z,8.10
2023-03-22T04:40:01.227Z,8.00
2023-03-22T04:45:06.694Z,8.00
2023-03-22T04:50:10.335Z,8.10
2023-03-22T04:55:12.982Z,8.30
2023-03-22T05:00:18.773Z,8.20
2023-03-22T05:05:21.445Z,8.20
2023-03-22T05:10:24.086Z,8.30
2023-03-22T05:15:28.137Z,8.30
2023-03-22T05:20:30.861Z,8.30
2023-03-22T05:25:34.354Z,8.40
2023-03-22T05:30:38.967Z,8.50
2023-03-22T05:35:42.770Z,8.60
2023-03-22T05:40:48.511Z,8.60
2023-03-22T05:45:53.098Z,8.70
2023-03-22T05:50:56.110Z,9.10
2023-03-22T05:56:00.824Z,9.50
2023-03-22T06:01:11.980Z,9.80
2023-03-22T06:06:18.602Z,10.00
2023-03-22T06:11:21.347Z,10.20
2023-03-22T06:16:25.352Z,10.40
2023-03-22T06:21:28.050Z,10.70
2023-03-22T06:26:31.216Z,11.00
2023-03-22T06:31:35.312Z,11.30
2023-03-22T06:36:37.980Z,11.30
2023-03-22T06:41:43.718Z,11.40
2023-03-22T06:46:48.838Z,11.70
2023-03-22T06:51:51.593Z,12.10
2023-03-22T06:56:54.422Z,12.40
2023-03-22T07:01:58.616Z,12.60
2023-03-22T07:07:01.349Z,12.90
2023-03-22T07:12:05.019Z,13.20
2023-03-22T07:17:09.152Z,13.40
2023-03-22T07:22:11.808Z,13.30
2023-03-22T07:27:14.488Z,13.60
2023-03-22T07:32:18.687Z,13.90
2023-03-22T07:37:21.409Z,13.70
2023-03-22T07:42:24.063Z,13.50
2023-03-22T07:47:40.270Z,13.40
2023-03-22T07:52:43.950Z,13.20
2023-03-22T07:57:46.767Z,13.60
2023-03-22T08:02:50.846Z,14.20
2023-03-22T08:07:54.363Z,14.80
2023-03-22T08:12:57.018Z,16.50
2023-03-22T08:18:01.894Z,18.70
2023-03-22T08:23:04.522Z,19.30
2023-03-22T08:28:07.527Z,18.30
2023-03-22T08:33:11.646Z,18.00
2023-03-22T08:38:14.366Z,18.80
2023-03-22T08:43:17.065Z,19.90
2023-03-22T08:48:21.308Z,20.60
2023-03-22T08:53:27.011Z,21.00
2023-03-22T08:58:30.057Z,21.60
2023-03-22T09:03:34.193Z,23.40
2023-03-22T09:08:37.050Z,22.20
2023-03-22T09:13:40.202Z,21.70
2023-03-22T09:18:44.551Z,20.90
2023-03-22T09:23:48.203Z,20.40
2023-03-22T09:28:51.148Z,20.70
2023-03-22T09:33:55.499Z,21.50
2023-03-22T09:38:59.577Z,22.60
2023-03-22T09:44:05.684Z,26.70
2023-03-22T09:49:17.335Z,27.80
2023-03-22T09:54:24.401Z,28.00
2023-03-22T09:59:39.967Z,28.40
2023-03-22T10:04:56.309Z,27.80
2023-03-22T10:10:08.225Z,27.20
2023-03-22T10:15:15.704Z,30.50
2023-03-22T10:20:31.003Z,31.70
2023-03-22T10:25:37.873Z,32.40
2023-03-22T10:30:42.675Z,29.00
2023-03-22T10:35:48.340Z,26.10
2023-03-22T10:40:52.583Z,22.80
2023-03-22T10:45:58.021Z,21.30
2023-03-22T10:51:03.330Z,21.30
2023-03-22T10:56:07.671Z,20.90
2023-03-22T11:01:13.334Z,20.70
2023-03-22T11:06:19.746Z,19.60
2023-03-22T11:11:24.742Z,21.70
2023-03-22T11:16:28.858Z,21.50
2023-03-22T11:21:34.053Z,24.30
2023-03-22T11:26:40.899Z,23.90
2023-03-22T11:31:59.114Z,24.40
2023-03-22T11:37:09.215Z,23.60
2023-03-22T11:42:21.422Z,28.60
2023-03-22T11:47:27.078Z,32.20
2023-03-22T11:52:31.233Z,33.80
2023-03-22T11:57:37.568Z,34.10
2023-03-22T12:02:47.111Z,33.10
2023-03-22T12:07:55.905Z,34.30
2023-03-22T12:13:01.780Z,35.00
2023-03-22T12:18:08.751Z,35.30
2023-03-22T12:23:17.451Z,35.10
2023-03-22T12:28:24.095Z,36.60
2023-03-22T12:33:30.935Z,36.90
2023-03-22T12:38:40.729Z,36.90
2023-03-22T12:43:51.839Z,32.90
2023-03-22T12:48:59.567Z,33.60
2023-03-22T12:54:04.577Z,32.90
2023-03-22T12:59:16.666Z,28.40
2023-03-22T13:04:32.616Z,26.70
2023-03-22T13:09:42.601Z,26.10
2023-03-22T13:14:57.556Z,28.00
2023-03-22T13:20:05.857Z,28.00
2023-03-22T13:25:30.620Z,28.00
2023-03-22T13:30:37.405Z,29.70
2023-03-22T13:35:46.025Z,28.50
2023-03-22T13:40:58.120Z,27.90
2023-03-22T13:46:13.976Z,27.30
2023-03-22T13:51:19.652Z,26.40
2023-03-22T13:56:34.715Z,25.40
2023-03-22T14:01:47.540Z,24.60
2023-03-22T14:06:56.035Z,24.70
2023-03-22T14:12:06.465Z,24.00
2023-03-22T14:17:32.224Z,23.80
